createdAt,value
2023-02-27T00:02:23.842Z,59.81
2023-02-27T00:04:56.002Z,60.61
2023-02-27T00:07:22.671Z,60.69
2023-02-27T00:09:49.379Z,60.95
2023-02-27T00:12:17.031Z,60.48
2023-02-27T00:14:46.915Z,60.31
2023-02-27T00:17:13.373Z,60.46
2023-02-27T00:19:40.263Z,60.40
2023-02-27T00:22:07.823Z,60.71
2023-02-27T00:24:34.771Z,60.41
2023-02-27T00:27:07.998Z,61.54
2023-02-27T00:29:34.627Z,61.74
2023-02-27T00:32:02.749Z,62.89
2023-02-27T00:34:31.891Z,62.78
2023-02-27T00:37:01.665Z,62.49
2023-02-27T00:39:29.651Z,62.26
2023-02-27T00:41:57.359Z,61.86
2023-02-27T00:44:24.097Z,61.96
2023-02-27T00:46:53.079Z,62.76
2023-02-27T00:49:20.993Z,61.95
2023-02-27T00:51:49.957Z,61.83
2023-02-27T00:54:19.035Z,61.97
2023-02-27T00:56:48.500Z,62.12
2023-02-27T00:59:16.667Z,61.35
2023-02-27T01:01:44.608Z,61.63
2023-02-27T01:04:11.671Z,61.61
2023-02-27T01:06:38.360Z,61.61
2023-02-27T01:09:05.712Z,61.74
2023-02-27T01:11:35.426Z,61.12
2023-02-27T01:14:01.944Z,61.29
2023-02-27T01:16:28.441Z,61.20
2023-02-27T01:18:55.266Z,61.48
2023-02-27T01:21:22.962Z,62.27
2023-02-27T01:23:49.478Z,62.28
2023-02-27T01:26:18.380Z,62.22
2023-02-27T01:28:45.203Z,62.02
2023-02-27T01:31:11.964Z,61.73
2023-02-27T01:33:41.770Z,61.62
2023-02-27T01:36:08.666Z,61.12
2023-02-27T01:38:38.338Z,61.41
2023-02-27T01:41:10.391Z,60.77
2023-02-27T01:43:37.633Z,61.12
2023-02-27T01:46:04.364Z,61.34
2023-02-27T01:48:33.823Z,61.08
2023-02-27T01:51:03.394Z,61.16
2023-02-27T01:53:30.201Z,61.34
2023-02-27T01:55:58.400Z,61.59
2023-02-27T01:58:27.675Z,61.24
2023-02-27T02:00:54.408Z,61.22
2023-02-27T02:03:20.973Z,61.02
2023-02-27T02:05:47.487Z,60.19
2023-02-27T02:08:16.519Z,60.18
2023-02-27T02:10:42.898Z,60.42
2023-02-27T02:13:11.558Z,60.59
2023-02-27T02:15:38.349Z,61.00
2023-02-27T02:18:05.953Z,60.60
2023-02-27T02:20:32.427Z,60.37
2023-02-27T02:22:58.836Z,59.97
2023-02-27T02:25:25.452Z,60.88
2023-02-27T02:27:51.841Z,60.56
2023-02-27T02:30:18.369Z,60.47
2023-02-27T02:32:45.077Z,60.53
2023-02-27T02:35:11.549Z,60.87
2023-02-27T02:37:38.595Z,60.74
2023-02-27T02:40:05.364Z,60.99
2023-02-27T02:42:32.658Z,61.02
2023-02-27T02:44:59.854Z,60.44
2023-02-27T02:47:29.761Z,60.77
2023-02-27T02:49:58.882Z,60.56
2023-02-27T02:52:25.806Z,60.25
2023-02-27T02:54:52.317Z,60.23
2023-02-27T02:57:19.958Z,59.45
2023-02-27T02:59:48.822Z,59.81
2023-02-27T03:02:15.538Z,59.83
2023-02-27T03:04:42.559Z,59.44
2023-02-27T03:07:12.961Z,59.58
2023-02-27T03:09:39.531Z,58.95
2023-02-27T03:12:06.271Z,58.56
2023-02-27T03:14:33.277Z,59.84
2023-02-27T03:17:00.192Z,59.49
2023-02-27T03:19:27.579Z,59.53
2023-02-27T03:21:57.150Z,60.26
2023-02-27T03:24:25.107Z,59.95
2023-02-27T03:26:54.003Z,60.49
2023-02-27T03:29:21.700Z,60.47
2023-02-27T03:31:48.306Z,60.36
2023-02-27T03:36:58.162Z,59.92
2023-02-27T03:39:24.687Z,60.29
2023-02-27T03:41:53.141Z,60.67
2023-02-27T03:44:19.652Z,60.27
2023-02-27T03:46:47.016Z,60.26
2023-02-27T03:49:13.832Z,60.26
2023-02-27T03:51:43.618Z,59.98
2023-02-27T03:54:14.098Z,60.40
2023-02-27T03:56:40.591Z,60.41
2023-02-27T03:59:07.262Z,60.47
2023-02-27T04:01:33.771Z,60.23
2023-02-27T04:04:00.570Z,60.10
2023-02-27T04:06:29.452Z,60.08
2023-02-27T04:09:00.100Z,60.60
2023-02-27T04:11:38.982Z,60.57
2023-02-27T04:14:12.902Z,60.32
2023-02-27T04:16:40.204Z,61.12
2023-02-27T04:19:06.971Z,61.12
2023-02-27T04:21:33.653Z,60.17
2023-02-27T04:24:00.433Z,60.30
2023-02-27T04:26:28.772Z,60.09
2023-02-27T04:28:55.303Z,59.99
2023-02-27T04:31:22.494Z,59.81
2023-02-27T04:33:50.909Z,60.16
2023-02-27T04:36:17.347Z,60.03
2023-02-27T04:38:44.063Z,59.70
2023-02-27T04:41:13.067Z,59.83
2023-02-27T04:43:51.741Z,59.68
2023-02-27T04:46:20.168Z,60.32
2023-02-27T04:48:47.042Z,59.98
2023-02-27T04:51:13.733Z,60.41
2023-02-27T04:53:40.364Z,60.12
2023-02-27T04:56:07.061Z,60.01
2023-02-27T04:58:33.766Z,60.02
2023-02-27T05:01:01.030Z,60.03
2023-02-27T05:03:30.142Z,60.25
2023-02-27T05:05:56.946Z,60.70
2023-02-27T05:08:24.837Z,60.01
2023-02-27T05:10:53.362Z,60.21
2023-02-27T05:13:19.826Z,60.34
2023-02-27T05:15:48.463Z,60.53
2023-02-27T05:18:16.434Z,60.91
2023-02-27T05:20:50.362Z,61.15
2023-02-27T05:23:19.511Z,60.45
2023-02-27T05:25:46.262Z,60.64
2023-02-27T05:28:12.737Z,61.37
2023-02-27T05:30:39.648Z,61.71
2023-02-27T05:33:08.992Z,61.44
2023-02-27T05:35:35.931Z,62.08
2023-02-27T05:38:02.454Z,62.11
2023-02-27T05:40:29.321Z,61.46
2023-02-27T05:42:56.550Z,61.17
2023-02-27T05:45:28.421Z,60.85
2023-02-27T05:47:54.989Z,60.72
2023-02-27T05:50:21.383Z,61.37
2023-02-27T05:52:48.145Z,61.18
2023-02-27T05:55:14.523Z,61.70
2023-02-27T05:57:41.881Z,61.38
2023-02-27T06:00:09.863Z,62.03
2023-02-27T06:02:39.030Z,61.20
2023-02-27T06:05:07.127Z,61.00
2023-02-27T06:07:33.886Z,61.32
2023-02-27T06:10:00.795Z,60.84
2023-02-27T06:12:28.995Z,61.00
2023-02-27T06:14:55.651Z,61.03
2023-02-27T06:17:24.380Z,60.97
2023-02-27T06:19:50.860Z,60.60
2023-02-27T06:22:17.710Z,61.07
2023-02-27T09:04:10.812Z,56.42
2023-02-27T09:09:25.261Z,56.73
2023-02-27T09:11:51.914Z,56.97
2023-02-27T09:17:02.677Z,55.58
2023-02-27T09:19:29.216Z,55.52
2023-02-27T09:21:55.834Z,55.98
2023-02-27T09:24:22.630Z,55.56
2023-02-27T09:26:49.709Z,54.97
2023-02-27T09:29:16.624Z,54.71
2023-02-27T09:31:43.344Z,54.00
2023-02-27T09:34:10.474Z,53.77
2023-02-27T09:36:37.132Z,55.00
2023-02-27T09:39:03.648Z,55.49
2023-02-27T09:41:31.224Z,57.14
2023-02-27T09:43:57.655Z,57.20
2023-02-27T09:46:31.016Z,57.75
2023-02-27T09:48:57.587Z,57.18
2023-02-27T09:51:25.559Z,56.36
2023-02-27T09:53:54.476Z,56.31
2023-02-27T09:56:21.054Z,56.61
2023-02-27T09:58:47.645Z,56.56
2023-02-27T10:01:14.309Z,56.70
2023-02-27T10:03:41.720Z,56.83
2023-02-27T10:06:10.929Z,56.50
2023-02-27T10:08:37.599Z,56.99
2023-02-27T10:11:15.700Z,57.58
2023-02-27T10:13:45.182Z,57.55
2023-02-27T10:16:11.978Z,56.40
2023-02-27T10:18:41.036Z,56.09
2023-02-27T10:21:07.761Z,56.91
2023-02-27T10:23:34.474Z,55.13
2023-02-27T10:26:02.084Z,55.33
2023-02-27T10:28:28.630Z,55.17
2023-02-27T10:30:56.138Z,55.95
2023-02-27T10:33:23.099Z,56.00
2023-02-27T10:35:49.547Z,55.92
2023-02-27T10:38:19.351Z,55.92
2023-02-27T10:40:45.925Z,55.42
2023-02-27T10:43:13.336Z,55.93
2023-02-27T10:45:47.301Z,54.90
2023-02-27T10:48:16.014Z,54.58
2023-02-27T10:50:42.457Z,55.68
2023-02-27T10:53:08.885Z,55.54
2023-02-27T10:55:35.360Z,55.48
2023-02-27T10:58:02.093Z,55.47
2023-02-27T11:00:28.758Z,55.86
2023-02-27T11:02:56.608Z,54.91
2023-02-27T11:05:23.131Z,54.91
2023-02-27T11:10:39.776Z,54.18
2023-02-27T11:13:06.636Z,55.07
2023-02-27T11:18:24.222Z,54.69
2023-02-27T11:22:19.854Z,54.25
2023-02-27T11:26:54.900Z,54.61
2023-02-27T11:29:24.368Z,54.29
2023-02-27T11:31:53.836Z,53.49
2023-02-27T11:34:21.755Z,52.69
2023-02-27T11:36:48.444Z,53.35
2023-02-27T11:42:10.310Z,54.11
2023-02-27T11:47:17.433Z,55.27
2023-02-27T11:49:43.877Z,55.00
2023-02-27T11:52:10.303Z,53.74
2023-02-27T11:54:37.128Z,53.55
2023-02-27T11:57:04.417Z,54.07
2023-02-27T11:59:30.839Z,54.31
2023-02-27T12:04:39.793Z,54.64
2023-02-27T12:09:51.960Z,54.73
2023-02-27T12:12:20.651Z,54.43
2023-02-27T12:14:47.158Z,53.94
2023-02-27T12:17:16.834Z,53.93
2023-02-27T12:19:43.361Z,53.06
2023-02-27T12:22:13.270Z,52.24
2023-02-27T12:24:41.303Z,52.88
2023-02-27T12:27:07.855Z,52.65
2023-02-27T12:29:37.033Z,53.00
2023-02-27T12:32:04.030Z,52.64
2023-02-27T12:37:14.921Z,51.80
2023-02-27T12:39:41.406Z,52.09
2023-02-27T12:42:10.336Z,53.14
2023-02-27T12:44:36.767Z,52.69
2023-02-27T12:47:03.533Z,52.79
2023-02-27T12:49:30.051Z,52.04
2023-02-27T12:52:14.413Z,53.60
2023-02-27T12:54:41.255Z,53.77
2023-02-27T13:00:01.316Z,56.17
2023-02-27T13:02:27.747Z,56.30
2023-02-27T13:04:57.633Z,56.15
2023-02-27T13:07:24.194Z,55.61
2023-02-27T13:09:51.604Z,55.38
2023-02-27T13:12:19.055Z,55.15
2023-02-27T13:14:46.203Z,54.71
2023-02-27T13:22:47.912Z,56.27
2023-02-27T13:25:14.474Z,56.04
2023-02-27T13:30:21.997Z,55.90
2023-02-27T13:32:48.948Z,56.67
2023-02-27T13:35:15.557Z,55.80
2023-02-27T13:37:42.140Z,55.61
2023-02-27T13:40:11.056Z,55.37
2023-02-27T13:42:40.418Z,55.87
2023-02-27T13:47:47.858Z,56.02
2023-02-27T13:50:14.733Z,55.99
2023-02-27T13:52:41.673Z,57.08
2023-02-27T13:55:12.026Z,56.67
2023-02-27T13:57:39.192Z,57.13
2023-02-27T14:00:05.872Z,56.61
2023-02-27T14:02:56.501Z,58.54
2023-02-27T14:05:25.431Z,59.17
2023-02-27T14:07:52.523Z,58.82
2023-02-27T14:10:19.236Z,58.95
2023-02-27T14:12:46.929Z,57.95
2023-02-27T14:15:14.387Z,58.14
2023-02-27T14:17:41.251Z,58.51
2023-02-27T14:20:10.346Z,59.70
2023-02-27T14:22:44.540Z,59.13
2023-02-27T14:25:15.181Z,59.11
2023-02-27T14:27:41.915Z,59.78
2023-02-27T14:30:08.527Z,60.25
2023-02-27T14:32:35.399Z,60.43
2023-02-27T14:35:02.341Z,60.65
2023-02-27T14:37:30.226Z,60.15
2023-02-27T14:39:56.749Z,60.33
2023-02-27T14:42:23.513Z,61.24
2023-02-27T14:44:50.724Z,61.25
2023-02-27T14:47:17.941Z,60.47
2023-02-27T14:55:28.920Z,60.85
2023-02-27T14:58:45.663Z,61.07
2023-02-27T15:00:42.652Z,60.50
2023-02-27T15:03:10.860Z,60.46
2023-02-27T15:05:45.058Z,60.35
2023-02-27T15:08:12.017Z,60.92
2023-02-27T15:10:40.793Z,61.16
2023-02-27T15:13:07.252Z,61.77
2023-02-27T15:15:35.943Z,61.48
2023-02-27T15:18:02.792Z,61.50
2023-02-27T15:20:30.697Z,61.95
2023-02-27T15:22:57.403Z,62.86
2023-02-27T15:25:24.028Z,62.04
2023-02-27T15:27:51.014Z,61.55
2023-02-27T15:30:17.420Z,61.91
2023-02-27T15:32:51.544Z,62.63
2023-02-27T15:35:19.682Z,62.92
2023-02-27T15:37:46.067Z,63.31
2023-02-27T15:40:12.467Z,63.19
2023-02-27T15:42:41.374Z,63.18
2023-02-27T15:45:09.098Z,63.40
2023-02-27T15:47:37.735Z,64.04
2023-02-27T15:50:04.227Z,63.55
2023-02-27T15:52:30.750Z,62.99
2023-02-27T15:54:59.708Z,63.66
2023-02-27T15:57:26.307Z,63.38
2023-02-27T15:59:52.933Z,64.69
2023-02-27T16:02:19.559Z,64.03
2023-02-27T16:04:46.476Z,63.59
2023-02-27T16:07:15.310Z,64.21
2023-02-27T16:09:41.950Z,64.83
2023-02-27T16:12:08.772Z,64.74
2023-02-27T16:14:37.627Z,65.64
2023-02-27T16:17:09.480Z,65.86
2023-02-27T16:19:38.135Z,65.10
2023-02-27T16:22:04.950Z,65.67
2023-02-27T16:24:38.991Z,64.89
2023-02-27T16:27:05.736Z,65.62
2023-02-27T16:29:32.460Z,66.03
2023-02-27T16:31:59.217Z,66.01
2023-02-27T16:34:35.581Z,66.30
2023-02-27T16:37:12.561Z,66.49
2023-02-27T16:39:41.310Z,65.38
2023-02-27T16:42:08.028Z,65.93
2023-02-27T16:44:36.059Z,65.57
2023-02-27T16:47:04.638Z,66.01
2023-02-27T16:49:43.936Z,66.38
2023-02-27T16:52:16.016Z,66.28
2023-02-27T16:54:42.628Z,66.50
2023-02-27T16:57:11.800Z,66.29
2023-02-27T16:59:42.564Z,66.37
2023-02-27T17:02:09.651Z,66.79
2023-02-27T17:04:36.376Z,67.23
2023-02-27T17:07:04.150Z,67.87
2023-02-27T17:09:32.447Z,67.53
2023-02-27T17:11:58.933Z,66.68
2023-02-27T17:14:27.067Z,67.21
2023-02-27T17:16:55.743Z,67.42
2023-02-27T17:19:22.151Z,68.38
2023-02-27T17:21:48.617Z,68.38
2023-02-27T17:24:16.122Z,68.88
2023-02-27T17:26:47.245Z,68.21
2023-02-27T17:29:14.162Z,68.28
2023-02-27T17:31:43.033Z,67.27
2023-02-27T17:34:09.589Z,66.76
2023-02-27T17:36:36.193Z,66.87
2023-02-27T17:39:02.688Z,66.72
2023-02-27T17:41:31.272Z,66.97
2023-02-27T17:44:00.465Z,67.47
2023-02-27T17:46:27.676Z,66.72
2023-02-27T17:48:56.294Z,67.48
2023-02-27T17:51:26.980Z,67.58
2023-02-27T17:53:53.497Z,67.32
2023-02-27T17:56:27.413Z,67.74
2023-02-27T17:58:54.296Z,68.49
2023-02-27T18:01:20.813Z,68.33
2023-02-27T18:03:47.665Z,68.36
2023-02-27T18:06:15.951Z,69.81
2023-02-27T18:08:45.531Z,69.38
2023-02-27T18:11:12.373Z,70.03
2023-02-27T18:13:39.125Z,69.14
2023-02-27T18:16:13.235Z,70.26
2023-02-27T18:18:41.366Z,69.79
2023-02-27T18:21:07.791Z,69.97
2023-02-27T18:23:34.263Z,69.97
2023-02-27T18:26:00.882Z,68.33
2023-02-27T18:28:27.872Z,68.06
2023-02-27T18:30:57.438Z,68.01
2023-02-27T18:33:23.973Z,68.61
2023-02-27T18:35:53.077Z,68.10
2023-02-27T18:38:21.515Z,67.55
2023-02-27T18:40:48.105Z,67.41
2023-02-27T18:43:19.779Z,67.23
2023-02-27T18:45:46.571Z,66.81
2023-02-27T18:48:13.178Z,66.60
2023-02-27T18:50:39.688Z,66.50
2023-02-27T18:53:06.732Z,66.02
2023-02-27T18:55:33.154Z,66.58
2023-02-27T18:58:00.914Z,66.86
2023-02-27T19:00:27.661Z,66.25
2023-02-27T19:02:56.653Z,68.02
2023-02-27T19:05:23.132Z,68.87
2023-02-27T19:07:49.613Z,69.17
2023-02-27T19:10:16.842Z,69.25
2023-02-27T19:12:43.507Z,69.34
2023-02-27T19:15:10.132Z,69.79
2023-02-27T19:17:36.825Z,69.90
2023-02-27T19:20:03.202Z,70.03
2023-02-27T19:22:29.629Z,70.05
2023-02-27T19:24:58.127Z,69.58
2023-02-27T19:27:24.715Z,69.00
2023-02-27T19:29:51.091Z,68.98
2023-02-27T19:32:17.619Z,68.34
2023-02-27T19:34:44.146Z,68.15
2023-02-27T19:37:13.198Z,68.47
2023-02-27T19:39:39.794Z,68.77
2023-02-27T19:42:06.178Z,68.83
2023-02-27T19:44:32.538Z,69.09
2023-02-27T19:46:59.236Z,69.23
2023-02-27T19:49:26.225Z,69.96
2023-02-27T19:51:52.626Z,69.47
2023-02-27T19:54:19.106Z,69.44
2023-02-27T19:56:45.583Z,69.41
2023-02-27T19:59:11.976Z,69.11
2023-02-27T20:01:38.477Z,68.74
2023-02-27T20:04:05.953Z,68.35
2023-02-27T20:06:36.866Z,67.78
2023-02-27T20:09:03.252Z,67.69
2023-02-27T20:11:29.708Z,68.98
2023-02-27T20:16:33.781Z,68.31
2023-02-27T20:19:00.580Z,67.59
2023-02-27T20:21:28.717Z,68.47
2023-02-27T22:09:06.876Z,67.61
2023-02-27T22:14:25.227Z,66.90
2023-02-27T22:16:53.162Z,67.24
2023-02-27T22:19:25.242Z,67.61
2023-02-27T22:53:14.181Z,68.25
2023-02-27T22:55:47.201Z,68.00
2023-02-27T23:01:03.262Z,66.84
2023-02-27T23:03:30.062Z,66.52
2023-02-27T23:05:56.522Z,66.79
2023-02-27T23:08:23.639Z,66.45
2023-02-27T23:10:52.950Z,67.30
2023-02-27T23:13:20.214Z,67.65
2023-02-27T23:15:49.175Z,67.26
2023-02-27T23:18:16.169Z,67.03
2023-02-27T23:20:42.608Z,67.36
2023-02-27T23:23:09.005Z,67.46
2023-02-27T23:25:35.523Z,67.05
2023-02-27T23:28:01.925Z,67.35
2023-02-27T23:30:28.435Z,67.83
2023-02-27T23:32:54.782Z,67.76
2023-02-27T23:35:21.766Z,68.49
2023-02-27T23:37:48.473Z,69.89
2023-02-27T23:40:14.881Z,69.83
2023-02-27T23:42:51.857Z,69.31
2023-02-27T23:45:20.741Z,69.65
2023-02-27T23:47:47.720Z,69.08
2023-02-27T23:50:16.178Z,69.72
2023-02-27T23:52:43.989Z,69.31
2023-02-27T23:55:11.766Z,68.75
2023-02-27T23:57:38.558Z,68.27
